Time;durP1;ratioP1;P1;durP2;ratioP2;P2;SDS_P1;SDS_P2;PMS_P1;PMS_P2;Temp;Humidity;BMP_temperature;BMP_pressure;BME280_temperature;BME280_humidity;BME280_pressure;Samples;Min_cycle;Max_cycle;Signal;HPM_P1;HPM_P2
2022/04/11 00:01:43;;;;;;;3.67;1.57;;;8.60;65.10;;;;;;5071533;28;20209;-42
2022/04/11 00:04:10;;;;;;;3.00;1.60;;;8.60;65.20;;;;;;5071004;28;20198;-42
2022/04/11 00:06:37;;;;;;;7.77;1.80;;;8.60;65.40;;;;;;5072092;28;20198;-43
2022/04/11 00:09:05;;;;;;;2.53;1.10;;;8.60;65.40;;;;;;5071067;28;20207;-43
2022/04/11 00:11:32;;;;;;;2.73;1.40;;;8.60;65.50;;;;;;5072642;28;20193;-44
2022/04/11 00:14:01;;;;;;;4.87;1.50;;;8.60;65.60;;;;;;5072205;28;20221;-43
2022/04/11 00:16:29;;;;;;;3.07;1.23;;;8.60;65.80;;;;;;5070760;28;20241;-47
2022/04/11 00:18:56;;;;;;;2.57;1.60;;;8.60;66.00;;;;;;5070560;28;20279;-49
2022/04/11 00:21:23;;;;;;;4.27;1.67;;;8.60;66.30;;;;;;5071749;28;20208;-43
2022/04/11 00:23:51;;;;;;;3.03;1.53;;;8.60;66.30;;;;;;5066327;28;20674;-45
2022/04/11 00:26:18;;;;;;;4.07;1.50;;;8.60;66.40;;;;;;5071481;28;20193;-43
2022/04/11 00:28:45;;;;;;;3.70;1.60;;;8.50;66.50;;;;;;5070682;28;20207;-49
2022/04/11 00:31:14;;;;;;;2.73;1.30;;;8.60;66.80;;;;;;5070170;28;20209;-44
2022/04/11 00:33:41;;;;;;;3.07;1.30;;;8.50;66.70;;;;;;5070686;28;20239;-45
2022/04/11 00:36:08;;;;;;;1.90;1.30;;;8.50;66.80;;;;;;5072016;28;20189;-43
2022/04/11 00:38:35;;;;;;;1.63;1.10;;;8.50;66.90;;;;;;5072235;28;20201;-47
2022/04/11 00:41:02;;;;;;;4.23;1.73;;;8.50;67.10;;;;;;5064572;28;20673;-43
2022/04/11 00:43:31;;;;;;;5.07;1.63;;;8.40;67.40;;;;;;5056672;28;20206;-47
2022/04/11 00:45:58;;;;;;;4.00;1.30;;;8.40;67.50;;;;;;5066981;28;20213;-42
2022/04/11 00:48:27;;;;;;;3.33;1.37;;;8.40;67.70;;;;;;5069752;28;20247;-45
2022/04/11 00:50:57;;;;;;;1.27;1.13;;;8.40;67.90;;;;;;5069179;28;20232;-43
2022/04/11 00:53:26;;;;;;;4.70;1.70;;;8.30;67.90;;;;;;5071335;28;20243;-43
2022/04/11 00:55:55;;;;;;;3.73;1.63;;;8.30;68.20;;;;;;5063238;28;20189;-49
2022/04/11 00:58:23;;;;;;;4.57;1.60;;;8.20;68.40;;;;;;5070611;28;20285;-44
2022/04/11 01:00:50;;;;;;;2.93;1.37;;;8.20;68.90;;;;;;5097748;28;20205;-46
2022/04/11 01:03:18;;;;;;;2.87;1.27;;;8.20;68.90;;;;;;5068706;28;20704;-51
2022/04/11 01:05:46;;;;;;;2.40;1.20;;;8.20;69.00;;;;;;5067893;28;20200;-46
2022/04/11 01:08:13;;;;;;;2.23;1.30;;;8.10;69.00;;;;;;5070185;28;20189;-47
2022/04/11 01:10:41;;;;;;;3.93;1.27;;;8.10;69.10;;;;;;5071316;28;20277;-44
2022/04/11 01:13:08;;;;;;;2.97;1.33;;;8.10;69.20;;;;;;5065498;28;20193;-43
2022/04/11 01:15:35;;;;;;;3.03;1.10;;;8.10;69.40;;;;;;5068992;28;20243;-47
2022/04/11 01:18:02;;;;;;;1.60;1.00;;;8.10;69.50;;;;;;5068561;28;20212;-47
2022/04/11 01:20:29;;;;;;;4.10;1.50;;;8.10;69.70;;;;;;5065457;28;20213;-43
2022/04/11 01:22:58;;;;;;;1.93;1.00;;;8.10;70.10;;;;;;5068439;28;20213;-45
2022/04/11 01:25:25;;;;;;;3.40;1.47;;;8.00;70.10;;;;;;5070505;28;20204;-49
2022/04/11 01:27:52;;;;;;;3.77;1.20;;;8.00;70.30;;;;;;5068594;28;20210;-46
2022/04/11 01:30:19;;;;;;;2.73;1.20;;;8.00;70.40;;;;;;5070440;28;20657;-47
2022/04/11 01:32:49;;;;;;;2.47;1.30;;;8.00;70.60;;;;;;5065331;28;20513;-52
2022/04/11 01:35:21;;;;;;;4.80;1.60;;;8.00;70.70;;;;;;5066250;28;20217;-47
2022/04/11 01:37:50;;;;;;;1.83;1.20;;;7.90;70.80;;;;;;5062621;28;20197;-49
2022/04/11 01:40:18;;;;;;;3.93;1.60;;;7.90;71.20;;;;;;5069350;28;20213;-50
2022/04/11 01:42:46;;;;;;;5.00;1.70;;;7.90;71.30;;;;;;5067410;28;20209;-49
2022/04/11 01:45:14;;;;;;;3.70;1.23;;;7.90;71.50;;;;;;5069039;28;20205;-52
2022/04/11 01:47:42;;;;;;;2.77;1.23;;;7.80;71.50;;;;;;5068577;28;20672;-45
2022/04/11 01:50:11;;;;;;;1.67;1.20;;;7.80;71.90;;;;;;5067367;28;20224;-47
2022/04/11 01:52:38;;;;;;;7.10;1.30;;;7.80;71.80;;;;;;5069501;28;20672;-49
2022/04/11 01:55:06;;;;;;;4.87;1.57;;;7.80;72.00;;;;;;5067837;28;20199;-47
2022/04/11 01:57:36;;;;;;;2.80;1.40;;;7.80;72.10;;;;;;5067450;28;20204;-46
2022/04/11 02:00:04;;;;;;;4.13;1.43;;;7.80;72.30;;;;;;5062439;28;20212;-50
2022/04/11 02:02:41;;;;;;;2.67;1.10;;;7.70;72.40;;;;;;5066119;28;20240;-50
2022/04/11 02:05:09;;;;;;;5.13;1.40;;;7.70;72.50;;;;;;5068720;28;20205;-52
2022/04/11 02:07:37;;;;;;;4.23;1.40;;;7.70;72.70;;;;;;5068480;28;20314;-47
2022/04/11 02:10:06;;;;;;;3.37;1.30;;;7.70;72.80;;;;;;5069499;28;20205;-53
2022/04/11 02:12:33;;;;;;;1.40;0.97;;;7.80;72.80;;;;;;5068860;28;20205;-47
2022/04/11 02:15:01;;;;;;;5.17;1.77;;;7.70;72.70;;;;;;5068823;28;20190;-49
2022/04/11 02:17:29;;;;;;;3.83;1.20;;;7.70;72.90;;;;;;5064858;28;20205;-46
2022/04/11 02:19:56;;;;;;;3.23;1.60;;;7.70;73.00;;;;;;5067856;28;20242;-51
2022/04/11 02:22:23;;;;;;;3.27;1.13;;;7.70;73.30;;;;;;5064846;28;20251;-46
2022/04/11 02:24:51;;;;;;;3.67;1.50;;;7.70;73.30;;;;;;5070141;28;20196;-51
2022/04/11 02:27:18;;;;;;;2.40;1.23;;;7.60;73.50;;;;;;5069813;28;20207;-48
2022/04/11 02:29:46;;;;;;;2.17;1.20;;;7.60;73.60;;;;;;5067932;28;20204;-49
2022/04/11 02:32:15;;;;;;;2.57;1.20;;;7.60;74.40;;;;;;5066084;28;20224;-48
2022/04/11 02:34:42;;;;;;;1.40;1.03;;;7.60;73.80;;;;;;5066922;28;20194;-52
2022/04/11 02:37:09;;;;;;;1.20;1.10;;;7.60;74.00;;;;;;5069317;28;20200;-49
2022/04/11 02:39:37;;;;;;;2.90;1.43;;;7.50;74.00;;;;;;5068324;28;20808;-44
2022/04/11 02:42:05;;;;;;;3.30;1.30;;;7.40;74.30;;;;;;5062755;28;20239;-46
2022/04/11 02:44:33;;;;;;;1.53;1.20;;;7.40;74.60;;;;;;5061888;28;20216;-48
2022/04/11 02:47:00;;;;;;;3.93;1.57;;;7.40;74.60;;;;;;5065862;28;20219;-46
2022/04/11 02:49:29;;;;;;;2.00;1.07;;;7.40;74.90;;;;;;5066658;28;20299;-45
2022/04/11 02:52:10;;;;;;;2.27;1.50;;;7.40;74.90;;;;;;5058159;28;20276;-43
2022/04/11 02:54:37;;;;;;;6.63;1.77;;;7.40;75.20;;;;;;5065911;28;20253;-42
2022/04/11 02:57:05;;;;;;;7.27;1.87;;;7.40;75.60;;;;;;5056694;28;20201;-46
2022/04/11 02:59:33;;;;;;;4.43;1.63;;;7.40;75.90;;;;;;5065320;28;20298;-42
2022/04/11 03:02:01;;;;;;;3.93;1.77;;;7.40;76.00;;;;;;5090932;28;20209;-43
2022/04/11 03:04:31;;;;;;;3.20;1.70;;;7.40;76.10;;;;;;5059178;28;20292;-43
2022/04/11 03:07:12;;;;;;;3.00;1.10;;;7.40;76.20;;;;;;5057709;28;20215;-44
2022/04/11 03:09:40;;;;;;;2.30;1.30;;;7.40;76.40;;;;;;5064035;28;20242;-49
2022/04/11 03:12:09;;;;;;;3.03;1.53;;;7.30;76.40;;;;;;5063920;28;20233;-49
2022/04/11 03:14:36;;;;;;;3.77;1.40;;;7.30;76.60;;;;;;5060179;28;20361;-52
2022/04/11 03:17:05;;;;;;;3.87;1.30;;;7.30;76.70;;;;;;5058966;28;20746;-53
2022/04/11 03:19:36;;;;;;;3.33;1.37;;;7.30;76.90;;;;;;5057117;28;20202;-50
2022/04/11 03:22:04;;;;;;;1.10;1.00;;;7.30;77.50;;;;;;5067998;28;20203;-52
2022/04/11 03:24:32;;;;;;;6.17;1.80;;;7.30;77.40;;;;;;5062131;28;20243;-48
2022/04/11 03:26:59;;;;;;;3.10;1.20;;;7.30;77.60;;;;;;5063543;28;20197;-50
2022/04/11 03:29:31;;;;;;;5.63;1.50;;;7.30;77.60;;;;;;5061750;28;20246;-52
2022/04/11 03:31:59;;;;;;;2.80;1.30;;;7.30;77.70;;;;;;5060719;28;20574;-50
2022/04/11 03:34:27;;;;;;;5.27;1.60;;;7.30;77.80;;;;;;5066553;28;20260;-52
2022/04/11 03:36:56;;;;;;;2.87;1.40;;;7.20;77.80;;;;;;5060833;28;20253;-48
2022/04/11 03:39:26;;;;;;;3.50;1.47;;;7.30;78.10;;;;;;5067168;28;20582;-53
2022/04/11 03:41:53;;;;;;;3.10;1.50;;;7.30;78.30;;;;;;5062620;28;20203;-50
2022/04/11 03:44:28;;;;;;;1.93;1.60;;;7.30;78.40;;;;;;5093576;28;20199;-51
2022/04/11 03:47:00;;;;;;;11.00;1.90;;;7.30;78.50;;;;;;5062757;28;20236;-52
2022/04/11 03:49:31;;;;;;;5.33;1.87;;;7.30;78.60;;;;;;5064067;28;20205;-53
2022/04/11 03:52:06;;;;;;;5.73;2.13;;;7.30;78.70;;;;;;5082220;28;20259;-53
2022/04/11 03:54:34;;;;;;;7.03;2.30;;;7.30;78.90;;;;;;5060304;28;20209;-51
2022/04/11 03:57:01;;;;;;;5.30;1.90;;;7.30;79.00;;;;;;5068028;28;20264;-48
2022/04/11 03:59:28;;;;;;;7.67;2.27;;;7.30;79.00;;;;;;5067026;28;20211;-51
2022/04/11 04:01:56;;;;;;;7.73;2.23;;;7.30;79.30;;;;;;5066448;28;20201;-52
2022/04/11 04:04:23;;;;;;;4.93;2.00;;;7.30;79.40;;;;;;5069865;28;20216;-48
2022/04/11 04:06:50;;;;;;;8.20;2.60;;;7.30;79.40;;;;;;5061340;28;20205;-51
2022/04/11 04:09:21;;;;;;;7.73;2.53;;;7.40;79.80;;;;;;5070588;28;20198;-45
2022/04/11 04:11:48;;;;;;;5.20;2.23;;;7.40;79.80;;;;;;5072022;28;20203;-45
2022/04/11 04:14:37;;;;;;;5.17;1.80;;;7.50;79.80;;;;;;5071426;28;20559;-50
2022/04/11 04:17:05;;;;;;;4.43;2.10;;;7.50;79.60;;;;;;5069302;28;20233;-52
2022/04/11 04:19:52;;;;;;;4.23;1.70;;;7.50;79.70;;;;;;5067784;28;20300;-46
2022/04/11 04:22:23;;;;;;;3.70;2.03;;;7.60;79.70;;;;;;5069842;28;20208;-47
2022/04/11 04:24:53;;;;;;;4.50;1.60;;;7.60;79.70;;;;;;5070979;28;20209;-50
2022/04/11 04:27:23;;;;;;;2.77;1.80;;;7.70;79.70;;;;;;5070891;28;20307;-51
2022/04/11 04:29:50;;;;;;;5.73;2.00;;;7.70;79.70;;;;;;5070942;28;20687;-49
2022/04/11 04:32:18;;;;;;;7.20;1.83;;;7.70;79.80;;;;;;5068819;28;20237;-51
2022/04/11 04:34:47;;;;;;;2.43;1.50;;;7.80;80.00;;;;;;5069619;28;20206;-50
2022/04/11 04:37:15;;;;;;;5.70;1.77;;;7.80;79.80;;;;;;5071486;28;20680;-51
2022/04/11 04:39:42;;;;;;;2.23;1.27;;;7.90;80.00;;;;;;5069853;28;20201;-52
2022/04/11 04:42:11;;;;;;;5.37;1.50;;;7.90;80.10;;;;;;5065091;28;20205;-52
2022/04/11 04:44:40;;;;;;;5.90;1.57;;;7.90;80.00;;;;;;5084754;28;20221;-48
2022/04/11 04:47:10;;;;;;;3.33;1.17;;;7.80;79.90;;;;;;5064611;28;20757;-51
2022/04/11 04:49:41;;;;;;;7.23;2.03;;;7.80;80.10;;;;;;5061081;28;20238;-45
2022/04/11 04:52:11;;;;;;;2.60;1.53;;;7.80;80.40;;;;;;5067617;28;20608;-49
2022/04/11 04:54:51;;;;;;;4.77;1.30;;;7.80;80.50;;;;;;5064162;28;20213;-46
2022/04/11 04:57:20;;;;;;;2.33;1.40;;;7.80;80.50;;;;;;5070427;28;20680;-48
2022/04/11 04:59:48;;;;;;;2.53;1.50;;;7.80;80.60;;;;;;5070503;28;20585;-47
2022/04/11 05:02:21;;;;;;;3.70;1.50;;;7.80;80.70;;;;;;5066294;28;20208;-47
2022/04/11 05:04:49;;;;;;;4.33;1.73;;;7.80;80.90;;;;;;5061739;28;20232;-42
2022/04/11 05:07:16;;;;;;;2.17;1.37;;;7.80;80.80;;;;;;5071698;28;20292;-45
2022/04/11 05:09:44;;;;;;;4.43;1.80;;;7.80;80.80;;;;;;5062257;28;20619;-47
2022/04/11 05:12:11;;;;;;;5.20;1.70;;;7.80;81.00;;;;;;5071753;28;20182;-43
2022/04/11 05:14:41;;;;;;;4.20;1.67;;;7.80;81.00;;;;;;5069188;28;20197;-42
2022/04/11 05:17:13;;;;;;;3.17;1.40;;;7.80;81.20;;;;;;5067174;28;20221;-41
2022/04/11 05:19:41;;;;;;;5.30;1.70;;;7.80;81.20;;;;;;5085048;28;20259;-42
2022/04/11 05:22:09;;;;;;;3.00;1.53;;;7.80;81.40;;;;;;5068659;28;20625;-44
2022/04/11 05:24:38;;;;;;;4.33;1.60;;;7.80;81.30;;;;;;5060307;28;20251;-42
2022/04/11 05:27:06;;;;;;;8.00;2.50;;;7.80;81.30;;;;;;5063512;28;20205;-42
2022/04/11 05:29:34;;;;;;;3.10;1.53;;;7.90;81.60;;;;;;5063095;28;20228;-43
2022/04/11 05:32:03;;;;;;;4.03;1.90;;;7.90;81.80;;;;;;5066223;28;20662;-42
2022/04/11 05:34:31;;;;;;;6.73;2.20;;;7.90;81.90;;;;;;5082482;28;20641;-42
2022/04/11 05:37:01;;;;;;;3.07;1.57;;;7.90;82.00;;;;;;5067511;28;20691;-43
2022/04/11 05:39:30;;;;;;;3.60;1.30;;;7.90;82.10;;;;;;5069506;28;20350;-44
2022/04/11 05:41:57;;;;;;;3.93;1.47;;;7.90;82.20;;;;;;5064572;28;20215;-42
2022/04/11 05:44:25;;;;;;;3.53;1.77;;;8.00;82.30;;;;;;5094794;28;20231;-42
2022/04/11 05:46:53;;;;;;;5.27;1.70;;;8.00;82.20;;;;;;5068242;28;20205;-44
2022/04/11 05:49:32;;;;;;;5.13;1.50;;;8.10;82.10;;;;;;5065960;28;20349;-44
2022/04/11 05:52:01;;;;;;;3.37;1.23;;;8.10;82.00;;;;;;5068447;28;20227;-42
2022/04/11 05:54:29;;;;;;;2.30;1.27;;;8.10;81.90;;;;;;5067458;28;20201;-48
2022/04/11 05:56:57;;;;;;;4.73;1.23;;;7.60;81.40;;;;;;5070268;28;20276;-43
2022/04/11 05:59:25;;;;;;;4.37;1.30;;;8.10;81.90;;;;;;5067950;28;20235;-47
2022/04/11 06:01:52;;;;;;;1.83;1.20;;;8.10;82.00;;;;;;5066073;28;20197;-43
2022/04/11 06:04:19;;;;;;;5.10;1.63;;;8.10;81.90;;;;;;5064652;28;20233;-47
2022/04/11 06:06:47;;;;;;;2.17;1.30;;;8.20;81.90;;;;;;5068577;28;20224;-48
2022/04/11 06:09:14;;;;;;;6.10;1.80;;;8.20;81.80;;;;;;5067027;28;20683;-45
2022/04/11 06:11:43;;;;;;;1.67;1.20;;;8.20;81.60;;;;;;5064004;28;20569;-42
2022/04/11 06:14:11;;;;;;;5.70;1.33;;;8.30;81.80;;;;;;5063325;28;20193;-43
2022/04/11 06:16:39;;;;;;;4.03;1.40;;;8.40;81.70;;;;;;5066478;28;20255;-47
2022/04/11 06:19:06;;;;;;;3.87;1.40;;;8.40;81.40;;;;;;5066850;28;20320;-43
2022/04/11 06:21:33;;;;;;;3.10;1.50;;;8.50;81.20;;;;;;5068031;28;20239;-44
2022/04/11 06:24:02;;;;;;;2.87;1.10;;;8.50;80.90;;;;;;5062706;28;20618;-43
2022/04/11 06:26:29;;;;;;;3.83;1.20;;;8.60;80.70;;;;;;5068281;28;20206;-42
2022/04/11 06:28:56;;;;;;;5.93;1.33;;;8.70;80.50;;;;;;5066558;28;20215;-42
2022/04/11 06:31:24;;;;;;;5.63;1.50;;;8.80;80.00;;;;;;5067361;28;20299;-42
2022/04/11 06:33:57;;;;;;;2.40;1.30;;;8.90;79.70;;;;;;5066442;28;20613;-44
2022/04/11 06:36:27;;;;;;;3.23;1.53;;;9.10;79.40;;;;;;5068277;28;20231;-45
2022/04/11 06:38:56;;;;;;;3.77;1.40;;;9.10;79.00;;;;;;5064128;28;20213;-45
2022/04/11 06:41:25;;;;;;;3.33;1.50;;;9.20;78.80;;;;;;5054320;28;20576;-46
2022/04/11 06:43:52;;;;;;;2.17;1.00;;;9.20;78.30;;;;;;5054841;28;20225;-45
2022/04/11 06:46:29;;;;;;;3.07;1.20;;;9.20;77.90;;;;;;5065565;28;20592;-45
2022/04/11 06:48:56;;;;;;;4.73;1.60;;;9.30;77.20;;;;;;5065368;28;20564;-44
2022/04/11 06:51:24;;;;;;;2.73;1.10;;;9.30;76.10;;;;;;5065457;28;20243;-41
2022/04/11 06:53:51;;;;;;;3.00;1.40;;;9.40;75.70;;;;;;5055619;28;20633;-43
2022/04/11 06:56:18;;;;;;;6.00;1.37;;;9.50;75.20;;;;;;5067352;28;20689;-44
2022/04/11 06:58:46;;;;;;;1.20;1.10;;;9.60;74.70;;;;;;5066654;28;20731;-42
2022/04/11 07:01:13;;;;;;;2.40;1.23;;;9.60;74.30;;;;;;5064708;28;20210;-43
2022/04/11 07:03:40;;;;;;;4.37;1.23;;;9.70;73.30;;;;;;5062985;28;20706;-43
2022/04/11 07:06:08;;;;;;;4.33;1.20;;;9.80;72.20;;;;;;5064203;28;20199;-42
2022/04/11 07:08:35;;;;;;;3.37;1.07;;;9.80;71.60;;;;;;5066171;28;20640;-42
2022/04/11 07:11:04;;;;;;;4.37;1.37;;;9.80;71.30;;;;;;5067554;28;20616;-42
2022/04/11 07:13:31;;;;;;;3.80;1.53;;;9.80;71.30;;;;;;5053330;28;20594;-43
2022/04/11 07:16:00;;;;;;;5.23;1.20;;;9.70;71.20;;;;;;5056683;28;20233;-45
2022/04/11 07:18:27;;;;;;;6.23;1.97;;;9.60;71.20;;;;;;5057732;28;20197;-43
2022/04/11 07:20:55;;;;;;;5.73;2.10;;;9.60;71.30;;;;;;5054865;28;20207;-43
2022/04/11 07:23:22;;;;;;;5.33;1.60;;;9.50;71.30;;;;;;5059666;28;20198;-42
2022/04/11 07:25:50;;;;;;;3.10;1.57;;;9.40;71.40;;;;;;5065157;28;20267;-41
2022/04/11 07:28:17;;;;;;;2.70;1.50;;;9.40;71.70;;;;;;5061516;28;20211;-45
2022/04/11 07:30:45;;;;;;;3.60;1.73;;;9.40;71.80;;;;;;5060722;28;20206;-46
2022/04/11 07:33:13;;;;;;;4.53;1.57;;;9.30;71.70;;;;;;5052353;28;20226;-45
2022/04/11 07:35:40;;;;;;;6.93;1.60;;;9.30;71.70;;;;;;5080283;28;20191;-46
2022/04/11 07:38:07;;;;;;;5.43;1.90;;;9.30;71.60;;;;;;5061066;28;20224;-45
2022/04/11 07:40:34;;;;;;;5.57;1.70;;;9.40;71.30;;;;;;5067961;28;20212;-45
2022/04/11 07:43:02;;;;;;;4.50;1.50;;;9.50;71.00;;;;;;5063500;28;20203;-45
2022/04/11 07:45:29;;;;;;;3.00;1.20;;;9.70;70.80;;;;;;5062608;28;20211;-45
2022/04/11 07:47:56;;;;;;;3.57;1.53;;;9.80;70.60;;;;;;5061523;28;20193;-48
2022/04/11 07:50:25;;;;;;;3.83;1.27;;;9.80;69.50;;;;;;5061176;28;20675;-46
2022/04/11 07:52:53;;;;;;;2.90;1.40;;;9.90;68.90;;;;;;5070328;28;20190;-46
2022/04/11 07:55:20;;;;;;;2.00;1.30;;;9.90;68.40;;;;;;5070893;28;20202;-46
2022/04/11 07:57:47;;;;;;;4.17;1.20;;;9.90;67.60;;;;;;5067421;28;20668;-48
2022/04/11 08:00:15;;;;;;;3.40;1.60;;;10.00;65.90;;;;;;5060507;28;20189;-41
2022/04/11 08:02:42;;;;;;;5.77;1.50;;;10.00;65.20;;;;;;5061675;28;20614;-44
2022/04/11 08:05:10;;;;;;;2.80;1.10;;;9.90;64.50;;;;;;5085106;28;20220;-49
2022/04/11 08:07:39;;;;;;;2.73;0.93;;;10.00;63.70;;;;;;5060874;28;20214;-48
2022/04/11 08:10:07;;;;;;;2.40;1.37;;;10.10;63.00;;;;;;5058720;28;20207;-45
2022/04/11 08:12:35;;;;;;;7.07;1.30;;;10.10;62.00;;;;;;5062013;28;20271;-47
2022/04/11 08:15:02;;;;;;;3.23;1.43;;;10.10;61.20;;;;;;5063379;28;20752;-45
2022/04/11 08:17:29;;;;;;;1.50;0.70;;;10.10;60.60;;;;;;5066176;28;20215;-46
2022/04/11 08:19:57;;;;;;;1.83;1.00;;;10.10;61.00;;;;;;5065055;28;20558;-46
2022/04/11 08:22:24;;;;;;;1.10;0.97;;;10.10;60.70;;;;;;5068563;28;20193;-44
2022/04/11 08:24:52;;;;;;;2.47;0.80;;;10.10;60.00;;;;;;5067023;28;20232;-45
2022/04/11 08:27:19;;;;;;;4.37;1.10;;;10.10;60.00;;;;;;5065081;28;20210;-45
2022/04/11 08:29:46;;;;;;;1.00;0.80;;;10.10;60.00;;;;;;5058261;28;20663;-47
2022/04/11 08:32:13;;;;;;;1.90;0.83;;;10.20;60.00;;;;;;5070619;28;20195;-45
2022/04/11 08:34:40;;;;;;;3.33;0.97;;;10.40;60.00;;;;;;5068980;28;20196;-43
2022/04/11 08:37:07;;;;;;;4.97;1.50;;;10.60;59.70;;;;;;5071120;28;20193;-43
2022/04/11 08:39:35;;;;;;;4.07;1.00;;;10.80;58.80;;;;;;5067159;28;20624;-49
2022/04/11 08:42:04;;;;;;;2.33;1.10;;;11.00;58.40;;;;;;5064157;28;20276;-49
2022/04/11 08:44:33;;;;;;;5.13;1.27;;;11.10;57.10;;;;;;5068608;28;20242;-44
2022/04/11 08:47:02;;;;;;;4.20;1.40;;;11.30;57.20;;;;;;5069223;28;20691;-47
2022/04/11 08:49:30;;;;;;;1.70;1.07;;;11.40;57.10;;;;;;5068060;28;20210;-46
2022/04/11 08:51:58;;;;;;;3.30;1.20;;;11.40;56.60;;;;;;5070213;28;20196;-45
2022/04/11 08:54:26;;;;;;;1.97;1.07;;;11.40;56.30;;;;;;5068054;28;20205;-47
2022/04/11 08:56:53;;;;;;;2.60;1.30;;;11.40;56.40;;;;;;5067695;28;20573;-46
2022/04/11 08:59:21;;;;;;;3.23;1.40;;;11.30;56.70;;;;;;5070830;28;20194;-45
2022/04/11 09:01:48;;;;;;;3.87;1.20;;;11.30;56.70;;;;;;5065904;28;20197;-47
2022/04/11 09:04:15;;;;;;;3.03;1.47;;;11.30;56.90;;;;;;5069283;28;20604;-48
2022/04/11 09:06:42;;;;;;;2.83;1.20;;;11.30;56.70;;;;;;5069576;28;20208;-47
2022/04/11 09:09:11;;;;;;;1.73;1.10;;;11.40;56.60;;;;;;5071285;28;20660;-43
2022/04/11 09:11:39;;;;;;;2.80;1.00;;;11.50;56.00;;;;;;5067277;28;20711;-48
2022/04/11 09:14:07;;;;;;;1.33;1.10;;;11.60;55.20;;;;;;5071230;28;20827;-48
2022/04/11 09:16:51;;;;;;;5.20;1.70;;;11.70;55.00;;;;;;5069619;28;20238;-46
2022/04/11 09:19:20;;;;;;;1.47;0.70;;;11.80;54.60;;;;;;5065128;28;20220;-45
2022/04/11 09:21:48;;;;;;;1.63;1.00;;;11.80;54.60;;;;;;5064655;28;20230;-46
2022/04/11 09:24:17;;;;;;;2.33;0.90;;;11.70;51.90;;;;;;5059160;28;20215;-44
2022/04/11 09:26:44;;;;;;;1.87;0.93;;;11.70;52.10;;;;;;5071230;28;20623;-47
2022/04/11 09:29:12;;;;;;;1.53;1.10;;;11.80;52.50;;;;;;5071118;28;20203;-46
2022/04/11 09:31:39;;;;;;;1.57;0.90;;;11.80;52.30;;;;;;5070054;28;20203;-47
2022/04/11 09:34:21;;;;;;;4.27;1.37;;;11.80;52.00;;;;;;5069807;28;20529;-48
2022/04/11 09:36:51;;;;;;;4.57;1.60;;;11.80;51.50;;;;;;5070731;28;20648;-47
2022/04/11 09:39:22;;;;;;;1.90;1.07;;;11.70;51.20;;;;;;5071259;28;20247;-45
2022/04/11 09:41:50;;;;;;;3.53;0.77;;;11.60;51.70;;;;;;5065464;28;20239;-46
2022/04/11 09:44:24;;;;;;;1.17;0.90;;;11.60;52.00;;;;;;5060666;28;20214;-43
2022/04/11 09:46:52;;;;;;;3.13;1.00;;;11.50;52.30;;;;;;5066682;28;20214;-51
2022/04/11 09:49:21;;;;;;;1.00;0.67;;;11.50;52.50;;;;;;5057148;28;20565;-50
2022/04/11 09:52:08;;;;;;;2.73;1.00;;;11.50;52.80;;;;;;5068180;28;20203;-45
2022/04/11 09:54:38;;;;;;;1.83;0.97;;;11.50;53.00;;;;;;5070831;28;20187;-49
2022/04/11 09:57:06;;;;;;;1.40;0.73;;;11.40;53.00;;;;;;5053983;28;20212;-46
2022/04/11 09:59:34;;;;;;;1.20;0.67;;;11.40;53.10;;;;;;5058059;28;20205;-45
2022/04/11 10:02:02;;;;;;;1.20;0.90;;;11.40;53.10;;;;;;5056431;28;20247;-42
2022/04/11 10:04:31;;;;;;;0.73;0.73;;;11.40;53.10;;;;;;5056165;28;20214;-51
2022/04/11 10:06:58;;;;;;;2.70;0.97;;;11.40;53.00;;;;;;5056876;28;20200;-45
2022/04/11 10:09:25;;;;;;;4.10;0.90;;;11.50;53.00;;;;;;5066122;28;20270;-43
2022/04/11 10:11:54;;;;;;;1.27;0.80;;;11.50;52.10;;;;;;5064677;28;20200;-51
2022/04/11 10:14:27;;;;;;;1.80;1.00;;;11.60;51.80;;;;;;5065917;28;20569;-42
2022/04/11 10:16:57;;;;;;;1.07;0.87;;;11.50;51.20;;;;;;5060965;28;20229;-42
2022/04/11 10:19:33;;;;;;;6.57;1.20;;;11.50;51.10;;;;;;5057625;28;20202;-43
2022/04/11 10:22:04;;;;;;;3.73;1.23;;;11.50;50.80;;;;;;5059759;28;20263;-42
2022/04/11 10:24:34;;;;;;;1.97;0.97;;;11.40;50.70;;;;;;5061068;28;20207;-44
2022/04/11 10:27:22;;;;;;;1.70;1.00;;;11.40;50.90;;;;;;5059896;28;20553;-44
2022/04/11 10:29:50;;;;;;;2.73;1.03;;;11.40;51.00;;;;;;5052053;28;20190;-45
2022/04/11 10:32:20;;;;;;;2.30;1.00;;;11.40;51.00;;;;;;5090662;27;20259;-48
2022/04/11 10:34:54;;;;;;;1.27;0.80;;;11.40;51.00;;;;;;5067374;28;20185;-46
2022/04/11 10:37:23;;;;;;;2.10;1.10;;;11.50;51.00;;;;;;5066972;28;20601;-46
2022/04/11 10:39:51;;;;;;;1.30;1.03;;;11.50;51.10;;;;;;5058853;28;20197;-45
2022/04/11 10:42:24;;;;;;;2.97;0.97;;;11.60;51.20;;;;;;5061526;28;20590;-46
2022/04/11 10:44:53;;;;;;;1.27;1.17;;;11.60;51.20;;;;;;5066523;28;20702;-44
2022/04/11 10:47:31;;;;;;;2.43;1.23;;;11.60;50.90;;;;;;5079386;28;20274;-45
2022/04/11 10:50:34;;;;;;;2.80;1.30;;;11.50;50.50;;;;;;5068825;28;20199;-50
2022/04/11 10:53:22;;;;;;;2.23;0.73;;;11.40;50.50;;;;;;5062045;28;21425;-44
2022/04/11 10:56:02;;;;;;;4.00;1.00;;;11.40;50.90;;;;;;5060702;28;20275;-46
2022/04/11 10:58:50;;;;;;;1.73;1.23;;;11.30;50.90;;;;;;5068569;28;20194;-41
2022/04/11 11:01:51;;;;;;;1.13;0.90;;;11.30;51.10;;;;;;5059578;28;20204;-45
2022/04/11 11:04:18;;;;;;;1.27;0.90;;;11.40;51.20;;;;;;5061080;28;20204;-43
2022/04/11 11:06:47;;;;;;;2.20;1.20;;;11.50;51.40;;;;;;5068151;28;20207;-44
2022/04/11 11:09:18;;;;;;;3.70;0.73;;;11.70;51.40;;;;;;5066843;28;20196;-49
2022/04/11 11:11:46;;;;;;;5.47;1.60;;;11.90;51.00;;;;;;5064002;28;20224;-43
2022/04/11 11:14:41;;;;;;;1.23;0.80;;;12.00;50.50;;;;;;5072952;28;20280;-44
2022/04/11 11:17:10;;;;;;;2.83;0.97;;;12.10;50.60;;;;;;5067695;28;20732;-46
2022/04/11 11:20:07;;;;;;;3.20;0.87;;;12.10;50.70;;;;;;5067833;28;20737;-43
2022/04/11 11:23:16;;;;;;;2.47;1.30;;;12.20;50.70;;;;;;5062568;28;20193;-45
2022/04/11 11:25:44;;;;;;;2.93;0.90;;;12.10;50.00;;;;;;5063544;28;20217;-51
2022/04/11 11:28:14;;;;;;;1.50;1.07;;;12.00;49.50;;;;;;5068829;28;20293;-51
2022/04/11 11:30:41;;;;;;;2.37;0.93;;;11.90;49.50;;;;;;5062663;28;20260;-46
2022/04/11 11:33:13;;;;;;;1.20;1.00;;;11.80;49.50;;;;;;5061932;28;20192;-44
2022/04/11 11:35:51;;;;;;;0.93;0.70;;;11.80;49.40;;;;;;5069172;28;20189;-50
2022/04/11 11:38:24;;;;;;;1.93;1.07;;;11.80;49.70;;;;;;5060146;28;20248;-43
2022/04/11 11:40:54;;;;;;;1.50;1.10;;;11.80;49.90;;;;;;5071552;28;20188;-49
2022/04/11 11:43:21;;;;;;;1.63;0.87;;;11.80;50.00;;;;;;5058823;28;20659;-49
2022/04/11 11:45:49;;;;;;;1.87;1.10;;;11.70;50.00;;;;;;5066388;28;20286;-45
2022/04/11 11:48:22;;;;;;;2.70;1.20;;;11.70;50.00;;;;;;5068226;28;20235;-50
2022/04/11 11:50:49;;;;;;;4.23;1.23;;;11.70;50.00;;;;;;5072291;28;20279;-47
2022/04/11 11:53:17;;;;;;;2.03;1.27;;;11.70;49.90;;;;;;5070721;28;20198;-49
2022/04/11 11:55:56;;;;;;;3.50;1.20;;;11.60;49.90;;;;;;5071332;28;20193;-50
2022/04/11 11:58:34;;;;;;;0.70;0.70;;;11.60;50.00;;;;;;5062952;28;20278;-48
2022/04/11 12:01:01;;;;;;;0.80;0.70;;;11.60;50.10;;;;;;5063337;28;20230;-46
2022/04/11 12:06:13;;;;;;;3.43;1.03;;;11.70;49.40;;;;;;5068257;28;20216;-48
2022/04/11 12:08:40;;;;;;;2.10;1.00;;;11.60;48.90;;;;;;5068519;28;20196;-42
2022/04/11 12:11:10;;;;;;;1.43;1.07;;;11.60;48.70;;;;;;5063606;28;20691;-43
2022/04/11 12:13:37;;;;;;;4.83;1.20;;;11.60;48.20;;;;;;5068410;28;20197;-45
2022/04/11 12:16:09;;;;;;;2.10;0.80;;;11.50;48.20;;;;;;5065619;28;20235;-41
2022/04/11 12:18:53;;;;;;;2.17;1.10;;;11.60;48.40;;;;;;5062302;28;20206;-46
2022/04/11 12:21:30;;;;;;;3.60;1.20;;;11.60;48.10;;;;;;5068289;28;20217;-50
2022/04/11 12:23:58;;;;;;;2.60;1.20;;;11.60;47.60;;;;;;5069690;28;20226;-49
2022/04/11 12:26:28;;;;;;;1.17;0.80;;;11.50;47.80;;;;;;5068912;28;20232;-46
2022/04/11 12:28:56;;;;;;;1.57;0.80;;;11.60;48.10;;;;;;5064020;28;20197;-43
2022/04/11 12:31:23;;;;;;;1.30;1.00;;;11.60;48.20;;;;;;5069043;28;20568;-45
2022/04/11 12:33:52;;;;;;;4.00;1.27;;;11.60;48.20;;;;;;5060737;28;20232;-41
2022/04/11 12:36:20;;;;;;;1.17;0.90;;;11.70;48.00;;;;;;5060241;28;20622;-45
2022/04/11 12:38:52;;;;;;;1.03;0.90;;;11.70;48.10;;;;;;5067049;28;20204;-46
2022/04/11 12:41:35;;;;;;;7.13;1.60;;;11.70;48.00;;;;;;5066015;28;20238;-47
2022/04/11 12:44:11;;;;;;;2.17;1.20;;;11.70;47.60;;;;;;5068233;28;20215;-43
2022/04/11 12:46:40;;;;;;;1.93;1.30;;;11.70;47.40;;;;;;5070183;28;20214;-44
2022/04/11 12:49:09;;;;;;;1.20;1.07;;;11.70;47.60;;;;;;5070244;28;20673;-45
2022/04/11 12:51:37;;;;;;;3.57;1.20;;;11.70;47.60;;;;;;5061909;28;20252;-43
2022/04/11 12:54:06;;;;;;;2.90;1.00;;;11.60;47.80;;;;;;5071682;28;20204;-43
2022/04/11 12:56:41;;;;;;;2.57;1.10;;;11.60;48.10;;;;;;5071219;28;20674;-43
2022/04/11 12:59:09;;;;;;;2.97;1.10;;;11.60;48.40;;;;;;5064987;28;20196;-44
2022/04/11 13:01:50;;;;;;;0.90;0.90;;;11.60;49.10;;;;;;5064209;28;20196;-45
2022/04/11 13:04:18;;;;;;;2.53;1.13;;;11.60;48.70;;;;;;5059546;28;20200;-47
2022/04/11 13:06:45;;;;;;;0.70;0.63;;;11.70;48.80;;;;;;5058659;28;20237;-42
2022/04/11 13:09:12;;;;;;;1.27;1.10;;;11.80;48.90;;;;;;5071768;28;20194;-43